createdAt,value
2019-05-22T00:00:54.060Z,1004.17
2019-05-22T00:02:46.838Z,1004.16
2019-05-22T00:03:46.763Z,1004.20
2019-05-22T00:05:39.565Z,1004.21
2019-05-22T00:06:39.477Z,1004.19
2019-05-22T00:08:32.281Z,1004.21
2019-05-22T00:09:32.234Z,1004.26
2019-05-22T00:11:25.013Z,1004.29
2019-05-22T00:12:24.909Z,1004.30
2019-05-22T00:14:17.744Z,1004.31
2019-05-22T00:15:17.623Z,1004.35
2019-05-22T00:17:10.393Z,1004.37
2019-05-22T00:18:10.433Z,1004.34
2019-05-22T00:20:03.486Z,1004.37
2019-05-22T00:21:03.310Z,1004.38
2019-05-22T00:22:56.022Z,1004.40
2019-05-22T00:23:55.958Z,1004.39
2019-05-22T00:25:48.812Z,1004.39
2019-05-22T00:26:48.756Z,1004.41
2019-05-22T00:28:41.382Z,1004.38
2019-05-22T00:29:41.331Z,1004.39
2019-05-22T00:31:34.109Z,1004.39
2019-05-22T00:32:34.039Z,1004.40
2019-05-22T00:34:26.818Z,1004.38
2019-05-22T00:35:26.810Z,1004.43
2019-05-22T00:37:19.550Z,1004.39
2019-05-22T00:38:19.448Z,1004.38
2019-05-22T00:40:12.235Z,1004.48
2019-05-22T00:41:12.184Z,1004.50
2019-05-22T00:43:12.865Z,1004.52
2019-05-22T00:44:04.902Z,1004.50
2019-05-22T00:45:57.740Z,1004.59
2019-05-22T00:46:57.630Z,1004.55
2019-05-22T00:48:50.437Z,1004.54
2019-05-22T00:49:50.334Z,1004.58
2019-05-22T00:51:43.139Z,1004.57
2019-05-22T00:52:43.062Z,1004.56
2019-05-22T00:54:35.883Z,1004.64
2019-05-22T00:55:35.813Z,1004.65
2019-05-22T00:57:28.624Z,1004.67
2019-05-22T00:58:28.552Z,1004.68
2019-05-22T01:00:21.335Z,1004.68
2019-05-22T01:01:21.277Z,1004.65
2019-05-22T01:03:14.102Z,1004.70
2019-05-22T01:04:14.022Z,1004.71
2019-05-22T01:06:06.784Z,1004.72
2019-05-22T01:07:06.738Z,1004.69
2019-05-22T01:08:59.527Z,1004.70
2019-05-22T01:09:59.565Z,1004.73
2019-05-22T01:11:52.287Z,1004.76
2019-05-22T01:12:52.198Z,1004.80
2019-05-22T01:14:44.971Z,1004.80
2019-05-22T01:15:44.967Z,1004.78
2019-05-22T01:17:37.690Z,1004.76
2019-05-22T01:18:37.607Z,1004.73
2019-05-22T01:20:30.401Z,1004.76
2019-05-22T01:21:30.339Z,1004.77
2019-05-22T01:23:23.140Z,1004.77
2019-05-22T01:24:23.043Z,1004.79
2019-05-22T01:26:15.831Z,1004.75
2019-05-22T01:27:15.765Z,1004.80
2019-05-22T01:29:08.563Z,1004.78
2019-05-22T01:30:08.500Z,1004.77
2019-05-22T01:32:01.266Z,1004.83
2019-05-22T01:33:01.196Z,1004.86
2019-05-22T01:34:54.001Z,1004.91
2019-05-22T01:35:53.935Z,1004.87
2019-05-22T01:37:46.736Z,1004.91
2019-05-22T01:38:46.645Z,1004.90
2019-05-22T01:40:39.480Z,1004.88
2019-05-22T01:41:39.376Z,1004.89
2019-05-22T01:43:32.173Z,1004.89
2019-05-22T01:44:32.094Z,1004.92
2019-05-22T01:46:24.869Z,1004.89
2019-05-22T01:47:24.835Z,1004.92
2019-05-22T01:49:17.591Z,1004.89
2019-05-22T01:50:17.524Z,1004.90
2019-05-22T01:52:10.877Z,1004.91
2019-05-22T01:53:10.233Z,1004.93
2019-05-22T01:55:35.819Z,1004.97
2019-05-22T01:56:35.742Z,1004.94
2019-05-22T01:58:28.530Z,1004.94
2019-05-22T01:59:28.466Z,1004.92
2019-05-22T02:01:21.272Z,1004.92
2019-05-22T02:02:21.196Z,1004.93
2019-05-22T02:04:14.907Z,1004.92
2019-05-22T02:05:13.961Z,1004.94
2019-05-22T02:07:06.698Z,1004.94
2019-05-22T02:08:06.634Z,1004.96
2019-05-22T02:09:59.419Z,1004.93
2019-05-22T02:10:59.325Z,1004.98
2019-05-22T02:12:52.173Z,1004.95
2019-05-22T02:13:52.062Z,1004.97
2019-05-22T02:15:44.882Z,1004.98
2019-05-22T02:16:56.257Z,1005.00
2019-05-22T02:18:37.676Z,1005.01
2019-05-22T02:19:37.533Z,1005.01
2019-05-22T02:21:30.314Z,1005.03
2019-05-22T02:22:30.237Z,1005.00
2019-05-22T02:24:23.014Z,1005.03
2019-05-22T02:25:22.938Z,1005.05
2019-05-22T02:27:15.722Z,1005.02
2019-05-22T02:28:15.648Z,1005.04
2019-05-22T02:30:08.466Z,1005.08
2019-05-22T02:31:08.384Z,1005.09
2019-05-22T02:33:01.139Z,1005.09
2019-05-22T02:34:01.092Z,1005.10
2019-05-22T02:35:53.890Z,1005.05
2019-05-22T02:36:53.811Z,1005.06
2019-05-22T02:38:46.579Z,1005.07
2019-05-22T02:39:46.536Z,1005.03
2019-05-22T02:41:39.270Z,1005.04
2019-05-22T02:42:39.196Z,1005.07
2019-05-22T02:44:32.007Z,1005.10
2019-05-22T02:45:31.922Z,1005.08
2019-05-22T02:47:24.691Z,1005.14
2019-05-22T02:48:24.627Z,1005.16
2019-05-22T02:50:17.421Z,1005.12
2019-05-22T02:51:17.330Z,1005.09
2019-05-22T02:53:11.051Z,1005.13
2019-05-22T02:54:10.986Z,1005.10
2019-05-22T02:56:03.751Z,1005.15
2019-05-22T02:57:03.702Z,1005.22
2019-05-22T02:58:56.474Z,1005.21
2019-05-22T02:59:56.399Z,1005.25
2019-05-22T03:01:49.204Z,1005.25
2019-05-22T03:02:49.121Z,1005.27
2019-05-22T03:04:41.927Z,1005.27
2019-05-22T03:05:41.862Z,1005.29
2019-05-22T03:07:34.646Z,1005.32
2019-05-22T03:08:34.572Z,1005.28
2019-05-22T03:10:27.369Z,1005.33
2019-05-22T03:11:27.279Z,1005.32
2019-05-22T03:13:20.055Z,1005.32
2019-05-22T03:14:19.989Z,1005.31
2019-05-22T03:16:12.793Z,1005.39
2019-05-22T03:17:12.733Z,1005.36
2019-05-22T03:19:09.083Z,1005.42
2019-05-22T03:20:05.427Z,1005.39
2019-05-22T03:21:58.238Z,1005.38
2019-05-22T03:22:58.151Z,1005.42
2019-05-22T03:24:50.998Z,1005.40
2019-05-22T03:25:50.925Z,1005.41
2019-05-22T03:27:43.715Z,1005.41
2019-05-22T03:28:43.620Z,1005.39
2019-05-22T03:30:36.522Z,1005.40
2019-05-22T03:31:36.417Z,1005.39
2019-05-22T03:33:29.221Z,1005.43
2019-05-22T03:34:29.130Z,1005.46
2019-05-22T03:36:21.954Z,1005.44
2019-05-22T03:37:21.857Z,1005.49
2019-05-22T03:39:14.616Z,1005.45
2019-05-22T03:40:14.623Z,1005.51
2019-05-22T03:42:07.366Z,1005.45
2019-05-22T03:43:07.298Z,1005.50
2019-05-22T03:45:00.071Z,1005.49
2019-05-22T03:46:00.005Z,1005.51
2019-05-22T03:47:53.807Z,1005.53
2019-05-22T03:48:53.713Z,1005.57
2019-05-22T03:50:46.502Z,1005.56
2019-05-22T03:51:46.422Z,1005.60
2019-05-22T03:53:39.208Z,1005.61
2019-05-22T03:54:39.127Z,1005.58
2019-05-22T03:56:31.928Z,1005.60
2019-05-22T03:57:31.831Z,1005.62
2019-05-22T03:59:24.616Z,1005.58
2019-05-22T04:00:24.559Z,1005.61
2019-05-22T04:02:17.334Z,1005.63
2019-05-22T04:03:17.266Z,1005.67
2019-05-22T04:05:10.070Z,1005.64
2019-05-22T04:06:09.994Z,1005.70
2019-05-22T04:08:02.746Z,1005.69
2019-05-22T04:09:02.665Z,1005.70
2019-05-22T04:10:55.434Z,1005.77
2019-05-22T04:11:55.392Z,1005.75
2019-05-22T04:13:48.227Z,1005.72
2019-05-22T04:14:48.108Z,1005.82
2019-05-22T04:16:40.880Z,1005.80
2019-05-22T04:17:40.813Z,1005.79
2019-05-22T04:19:48.350Z,1005.81
2019-05-22T04:20:33.525Z,1005.81
2019-05-22T04:22:26.320Z,1005.83
2019-05-22T04:23:26.252Z,1005.80
2019-05-22T04:25:19.025Z,1005.83
2019-05-22T04:26:18.959Z,1005.83
2019-05-22T04:28:11.797Z,1005.90
2019-05-22T04:29:11.709Z,1005.87
2019-05-22T04:31:04.484Z,1005.88
2019-05-22T04:32:04.397Z,1005.88
2019-05-22T04:33:57.263Z,1005.84
2019-05-22T04:34:57.152Z,1005.86
2019-05-22T04:36:49.958Z,1005.89
2019-05-22T04:37:49.862Z,1005.86
2019-05-22T04:39:42.636Z,1005.86
2019-05-22T04:40:42.560Z,1005.87
2019-05-22T04:42:35.351Z,1005.87
2019-05-22T04:43:35.268Z,1005.91
2019-05-22T04:45:28.077Z,1005.92
2019-05-22T04:46:27.997Z,1005.92
2019-05-22T04:48:20.779Z,1005.92
2019-05-22T04:49:20.704Z,1005.93
2019-05-22T04:51:13.629Z,1005.90
2019-05-22T04:52:13.545Z,1005.93
2019-05-22T04:54:06.347Z,1005.94
2019-05-22T04:55:06.257Z,1005.96
2019-05-22T04:56:59.065Z,1005.97
2019-05-22T04:57:59.022Z,1005.97
2019-05-22T04:59:51.827Z,1005.95
2019-05-22T05:00:51.789Z,1005.98
2019-05-22T05:02:44.566Z,1005.97
2019-05-22T05:03:44.463Z,1005.99
2019-05-22T05:05:37.252Z,1005.99
2019-05-22T05:06:37.185Z,1006.02
2019-05-22T05:08:30.001Z,1006.00
2019-05-22T05:09:29.911Z,1006.01
2019-05-22T05:11:22.707Z,1006.09
2019-05-22T05:12:22.648Z,1006.10
2019-05-22T05:14:15.439Z,1006.13
2019-05-22T05:15:15.346Z,1006.14
2019-05-22T05:17:08.226Z,1006.15
2019-05-22T05:18:08.075Z,1006.16
2019-05-22T05:20:00.862Z,1006.18
2019-05-22T05:21:00.775Z,1006.14
2019-05-22T05:22:53.590Z,1006.17
2019-05-22T05:23:53.489Z,1006.23
2019-05-22T05:25:46.290Z,1006.19
2019-05-22T05:26:46.238Z,1006.23
2019-05-22T05:28:39.028Z,1006.17
2019-05-22T05:29:38.960Z,1006.13
2019-05-22T05:31:31.705Z,1006.16
2019-05-22T05:32:31.649Z,1006.15
2019-05-22T05:34:24.441Z,1006.20
2019-05-22T05:35:24.356Z,1006.21
2019-05-22T05:37:17.146Z,1006.19
2019-05-22T05:38:17.090Z,1006.19
2019-05-22T05:40:09.999Z,1006.16
2019-05-22T05:41:09.878Z,1006.21
2019-05-22T05:43:02.634Z,1006.25
2019-05-22T05:44:02.576Z,1006.16
2019-05-22T05:45:55.385Z,1006.17
2019-05-22T05:46:55.294Z,1006.29
2019-05-22T05:48:48.101Z,1006.23
2019-05-22T05:49:48.007Z,1006.23
2019-05-22T05:51:40.879Z,1006.21
2019-05-22T05:52:40.756Z,1006.25
2019-05-22T05:54:33.590Z,1006.22
2019-05-22T05:55:33.474Z,1006.20
2019-05-22T05:57:26.262Z,1006.28
2019-05-22T05:58:26.182Z,1006.27
2019-05-22T06:00:19.058Z,1006.16
2019-05-22T06:01:18.988Z,1006.19
2019-05-22T06:03:11.782Z,1006.22
2019-05-22T06:04:11.731Z,1006.31
2019-05-22T06:06:04.496Z,1006.35
2019-05-22T06:07:04.424Z,1006.30
2019-05-22T06:08:57.205Z,1006.34
2019-05-22T06:09:57.125Z,1006.29
2019-05-22T06:11:49.904Z,1006.36
2019-05-22T06:12:49.891Z,1006.37
2019-05-22T06:14:42.653Z,1006.33
2019-05-22T06:15:46.925Z,1006.38
2019-05-22T06:17:35.347Z,1006.41
2019-05-22T06:18:35.279Z,1006.43
2019-05-22T06:20:28.080Z,1006.48
2019-05-22T06:21:27.976Z,1006.49
2019-05-22T06:23:20.758Z,1006.55
2019-05-22T06:24:20.683Z,1006.55
2019-05-22T06:26:13.489Z,1006.56
2019-05-22T06:27:13.395Z,1006.61
2019-05-22T06:29:06.205Z,1006.65
2019-05-22T06:30:06.136Z,1006.67
2019-05-22T06:31:58.941Z,1006.73
2019-05-22T06:32:58.846Z,1006.73
2019-05-22T06:34:51.780Z,1006.64
2019-05-22T06:35:51.649Z,1006.69
2019-05-22T06:37:44.458Z,1006.65
2019-05-22T06:38:44.374Z,1006.67
2019-05-22T06:40:37.171Z,1006.72
2019-05-22T06:41:37.094Z,1006.66
2019-05-22T06:43:29.875Z,1006.66
2019-05-22T06:44:29.812Z,1006.66
2019-05-22T06:46:22.597Z,1006.66
2019-05-22T06:47:22.523Z,1006.76
2019-05-22T06:49:15.308Z,1006.69
2019-05-22T06:50:15.221Z,1006.69
2019-05-22T06:52:08.034Z,1006.73
2019-05-22T06:53:10.205Z,1006.76
2019-05-22T06:55:00.764Z,1006.84
2019-05-22T06:56:00.690Z,1006.82
2019-05-22T06:57:53.448Z,1006.86
2019-05-22T06:58:53.382Z,1006.89
2019-05-22T07:00:46.193Z,1006.92
2019-05-22T07:01:46.112Z,1006.94
2019-05-22T07:03:38.908Z,1006.94
2019-05-22T07:04:38.855Z,1006.95
2019-05-22T07:06:31.672Z,1006.87
2019-05-22T07:07:31.583Z,1006.94
2019-05-22T07:09:24.382Z,1007.03
2019-05-22T07:10:24.389Z,1006.94
2019-05-22T07:12:17.097Z,1007.06
2019-05-22T07:13:17.055Z,1007.01
2019-05-22T07:15:09.868Z,1006.99
2019-05-22T07:16:09.783Z,1006.99
2019-05-22T07:18:02.800Z,1006.92
2019-05-22T07:19:02.739Z,1007.05
2019-05-22T07:20:55.598Z,1007.10
2019-05-22T07:21:55.503Z,1007.10
2019-05-22T07:23:48.297Z,1007.08
2019-05-22T07:24:48.202Z,1007.13
2019-05-22T07:26:40.985Z,1007.10
2019-05-22T07:27:40.922Z,1007.05
2019-05-22T07:29:33.731Z,1007.05
2019-05-22T07:30:33.723Z,1007.11
2019-05-22T07:32:26.681Z,1007.14
2019-05-22T07:33:26.333Z,1007.08
2019-05-22T07:35:19.148Z,1007.12
2019-05-22T07:36:19.053Z,1007.13
2019-05-22T07:38:11.861Z,1007.18
2019-05-22T07:39:11.750Z,1007.11
2019-05-22T07:41:04.548Z,1007.19
2019-05-22T07:42:04.453Z,1007.10
2019-05-22T07:43:57.310Z,1007.18
2019-05-22T07:44:57.239Z,1007.19
2019-05-22T07:46:50.038Z,1007.21
2019-05-22T07:47:49.936Z,1007.22
2019-05-22T07:49:42.727Z,1007.23
2019-05-22T07:50:42.682Z,1007.24
2019-05-22T07:52:35.504Z,1007.23
2019-05-22T07:53:35.483Z,1007.29
2019-05-22T07:55:28.208Z,1007.29
2019-05-22T07:56:28.132Z,1007.36
2019-05-22T07:58:20.942Z,1007.33
2019-05-22T07:59:20.844Z,1007.37
2019-05-22T08:01:13.638Z,1007.42
2019-05-22T08:02:13.551Z,1007.42
2019-05-22T08:04:06.341Z,1007.45
2019-05-22T08:05:06.271Z,1007.45
2019-05-22T08:06:59.055Z,1007.51
2019-05-22T08:07:58.970Z,1007.46
2019-05-22T08:09:51.812Z,1007.49
2019-05-22T08:10:51.746Z,1007.45
2019-05-22T08:12:44.556Z,1007.46
2019-05-22T08:13:44.460Z,1007.44
2019-05-22T08:15:37.250Z,1007.43
2019-05-22T08:16:37.168Z,1007.46
2019-05-22T08:18:29.961Z,1007.45
2019-05-22T08:19:29.895Z,1007.47
2019-05-22T08:21:23.550Z,1007.50
2019-05-22T08:22:22.656Z,1007.47
2019-05-22T08:24:15.476Z,1007.54
2019-05-22T08:25:15.430Z,1007.50
2019-05-22T08:27:08.176Z,1007.49
2019-05-22T08:28:08.100Z,1007.51
2019-05-22T08:30:00.944Z,1007.50
2019-05-22T08:31:00.879Z,1007.52
2019-05-22T08:32:53.741Z,1007.61
2019-05-22T08:33:53.575Z,1007.53
2019-05-22T08:35:46.348Z,1007.52
2019-05-22T08:36:46.276Z,1007.53
2019-05-22T08:38:39.938Z,1007.49
2019-05-22T08:39:39.845Z,1007.54
2019-05-22T08:41:32.709Z,1007.49
2019-05-22T08:42:35.404Z,1007.50
2019-05-22T08:44:25.358Z,1007.49
2019-05-22T08:45:25.320Z,1007.45
2019-05-22T08:47:18.115Z,1007.51
2019-05-22T08:48:18.078Z,1007.44
2019-05-22T08:50:10.808Z,1007.45
2019-05-22T08:51:10.705Z,1007.48
2019-05-22T08:53:03.492Z,1007.53
2019-05-22T08:54:05.894Z,1007.58
2019-05-22T08:55:56.252Z,1007.60
2019-05-22T08:56:56.182Z,1007.62
2019-05-22T08:58:48.991Z,1007.65
2019-05-22T08:59:48.895Z,1007.67
2019-05-22T09:01:41.677Z,1007.67
2019-05-22T09:02:41.641Z,1007.68
2019-05-22T09:04:34.393Z,1007.69
2019-05-22T09:05:34.365Z,1007.69
2019-05-22T09:07:27.114Z,1007.72
2019-05-22T09:08:27.027Z,1007.83
2019-05-22T09:10:19.814Z,1007.78
2019-05-22T09:11:19.743Z,1007.81
2019-05-22T09:13:12.588Z,1007.82
2019-05-22T09:14:12.474Z,1007.82
2019-05-22T09:16:05.285Z,1007.87
2019-05-22T09:17:05.194Z,1007.90
2019-05-22T09:18:58.032Z,1007.90
2019-05-22T09:19:57.928Z,1007.91
2019-05-22T09:21:50.714Z,1007.93
2019-05-22T09:22:50.637Z,1008.01
2019-05-22T09:24:43.466Z,1008.00
2019-05-22T09:25:43.404Z,1008.05
2019-05-22T09:27:36.272Z,1007.95
2019-05-22T09:28:36.207Z,1007.94
2019-05-22T09:30:29.028Z,1007.99
2019-05-22T09:31:28.968Z,1007.99
2019-05-22T09:33:21.747Z,1007.95
2019-05-22T09:34:21.667Z,1008.01
2019-05-22T09:36:14.456Z,1007.98
2019-05-22T09:37:14.412Z,1007.98
2019-05-22T09:39:07.246Z,1008.09
2019-05-22T09:40:07.127Z,1008.05
2019-05-22T09:41:59.913Z,1008.03
2019-05-22T09:42:59.830Z,1008.06
2019-05-22T09:44:52.612Z,1008.04
2019-05-22T09:45:52.530Z,1008.07
2019-05-22T09:47:45.312Z,1008.04
2019-05-22T09:48:45.239Z,1008.03
2019-05-22T09:50:38.059Z,1008.03
2019-05-22T09:51:38.029Z,1008.05
2019-05-22T09:53:30.767Z,1008.11
2019-05-22T09:54:30.702Z,1008.10
2019-05-22T09:56:23.495Z,1008.12
2019-05-22T09:57:23.391Z,1008.11
2019-05-22T09:59:16.210Z,1008.13
2019-05-22T10:00:16.130Z,1008.10
2019-05-22T10:02:08.886Z,1008.15
2019-05-22T10:03:08.851Z,1008.13
2019-05-22T10:05:01.627Z,1008.16
2019-05-22T10:06:01.723Z,1008.15
2019-05-22T10:08:00.266Z,1008.12
2019-05-22T10:08:54.281Z,1008.20
2019-05-22T10:10:47.076Z,1008.17
2019-05-22T10:11:47.012Z,1008.18
2019-05-22T10:13:39.986Z,1008.22
2019-05-22T10:14:39.729Z,1008.20
2019-05-22T10:16:32.504Z,1008.21
2019-05-22T10:17:32.421Z,1008.24
2019-05-22T10:19:25.278Z,1008.23
2019-05-22T10:20:25.175Z,1008.24
2019-05-22T10:22:17.958Z,1008.26
2019-05-22T10:23:17.904Z,1008.31
2019-05-22T10:25:16.166Z,1008.29
2019-05-22T10:26:10.600Z,1008.26
2019-05-22T10:28:03.368Z,1008.28
2019-05-22T10:29:03.377Z,1008.25
2019-05-22T10:30:57.522Z,1008.35
2019-05-22T10:31:56.023Z,1008.27
2019-05-22T10:33:51.869Z,1008.39
2019-05-22T10:34:48.881Z,1008.38
2019-05-22T10:36:43.221Z,1008.51
2019-05-22T10:37:41.488Z,1008.45
2019-05-22T10:39:34.319Z,1008.52
2019-05-22T10:40:34.214Z,1008.43
2019-05-22T10:42:27.001Z,1008.50
2019-05-22T10:43:26.927Z,1008.47
2019-05-22T10:45:19.732Z,1008.53
2019-05-22T10:46:19.643Z,1008.49
2019-05-22T10:48:12.453Z,1008.49
2019-05-22T10:49:12.379Z,1008.45
2019-05-22T10:51:05.172Z,1008.50
2019-05-22T10:52:05.088Z,1008.54
2019-05-22T10:53:57.883Z,1008.57
2019-05-22T10:54:57.793Z,1008.57
2019-05-22T10:56:50.595Z,1008.69
2019-05-22T10:57:50.554Z,1008.71
2019-05-22T10:59:43.383Z,1008.73
2019-05-22T11:00:43.254Z,1008.67
2019-05-22T11:02:36.042Z,1008.71
2019-05-22T11:03:35.981Z,1008.71
2019-05-22T11:05:28.759Z,1008.77
2019-05-22T11:06:28.683Z,1008.75
2019-05-22T11:08:21.509Z,1008.72
2019-05-22T11:09:21.436Z,1008.74
2019-05-22T11:11:14.235Z,1008.74
2019-05-22T11:12:14.125Z,1008.65
2019-05-22T11:14:09.483Z,1008.73
2019-05-22T11:15:07.019Z,1008.70
2019-05-22T11:17:01.558Z,1008.78
2019-05-22T11:17:59.677Z,1008.74
2019-05-22T11:19:52.468Z,1008.70
2019-05-22T11:20:52.389Z,1008.74
2019-05-22T11:22:45.299Z,1008.74
2019-05-22T11:23:52.029Z,1008.75
2019-05-22T11:25:37.997Z,1008.82
2019-05-22T11:26:37.923Z,1008.77
2019-05-22T11:28:30.669Z,1008.76
2019-05-22T11:29:30.608Z,1008.80
2019-05-22T11:31:23.460Z,1008.83
2019-05-22T11:32:23.370Z,1008.84
2019-05-22T11:34:16.338Z,1008.86
2019-05-22T11:35:16.272Z,1008.92
2019-05-22T11:37:09.072Z,1008.96
2019-05-22T11:38:08.964Z,1008.88
2019-05-22T11:40:01.848Z,1008.83
2019-05-22T11:41:01.695Z,1008.88
2019-05-22T11:42:54.474Z,1008.94
2019-05-22T11:43:54.403Z,1008.89
2019-05-22T11:45:47.265Z,1008.92
2019-05-22T11:46:47.096Z,1008.95
2019-05-22T11:48:39.932Z,1008.96
2019-05-22T11:49:39.830Z,1008.98
2019-05-22T11:51:32.631Z,1008.99
2019-05-22T11:52:32.557Z,1008.97
2019-05-22T11:54:25.351Z,1008.97
2019-05-22T11:55:42.711Z,1008.98
2019-05-22T11:57:18.065Z,1009.04
2019-05-22T11:58:17.969Z,1009.02
2019-05-22T12:00:10.762Z,1009.06
2019-05-22T12:01:10.677Z,1009.08
2019-05-22T12:03:03.509Z,1009.04
2019-05-22T12:04:03.417Z,1009.02
2019-05-22T12:05:56.213Z,1009.08
2019-05-22T12:06:56.131Z,1008.97
2019-05-22T12:08:49.007Z,1009.01
2019-05-22T12:09:48.967Z,1009.09
2019-05-22T12:11:43.244Z,1009.05
2019-05-22T12:12:41.703Z,1009.05
2019-05-22T12:14:34.513Z,1009.01
2019-05-22T12:15:34.427Z,1009.02
2019-05-22T12:17:37.676Z,1009.06
2019-05-22T12:18:27.163Z,1008.98
2019-05-22T12:20:19.984Z,1008.99
2019-05-22T12:21:19.864Z,1008.98
2019-05-22T12:23:12.650Z,1009.03
2019-05-22T12:24:26.005Z,1009.03
2019-05-22T12:26:05.399Z,1009.02
2019-05-22T12:27:05.322Z,1009.02
2019-05-22T12:28:58.164Z,1008.98
2019-05-22T12:29:58.063Z,1009.03
2019-05-22T12:31:50.845Z,1009.03
2019-05-22T12:32:50.755Z,1009.03
2019-05-22T12:34:43.648Z,1009.05
2019-05-22T12:35:43.463Z,1009.05
2019-05-22T12:37:36.335Z,1009.03
2019-05-22T12:38:36.208Z,1009.09
2019-05-22T12:40:29.193Z,1009.10
2019-05-22T12:41:29.098Z,1009.06
2019-05-22T12:43:21.886Z,1009.11
2019-05-22T12:44:21.853Z,1009.03
2019-05-22T12:46:14.615Z,1009.13
2019-05-22T12:47:14.658Z,1009.16
2019-05-22T12:49:08.978Z,1009.13
2019-05-22T12:50:07.296Z,1009.13
2019-05-22T12:52:00.057Z,1009.13
2019-05-22T12:52:59.956Z,1009.14
2019-05-22T12:54:53.149Z,1009.11
2019-05-22T12:55:52.797Z,1009.19
2019-05-22T12:57:45.514Z,1009.18
2019-05-22T12:58:45.437Z,1009.18
2019-05-22T13:00:38.202Z,1009.22
2019-05-22T13:01:38.135Z,1009.20
2019-05-22T13:03:30.954Z,1009.22
2019-05-22T13:04:30.897Z,1009.23
2019-05-22T13:06:23.692Z,1009.23
2019-05-22T13:07:23.609Z,1009.25
2019-05-22T13:09:16.387Z,1009.24
2019-05-22T13:10:16.456Z,1009.16
2019-05-22T13:12:09.171Z,1009.19
2019-05-22T13:13:09.074Z,1009.24
2019-05-22T13:15:09.624Z,1009.26
2019-05-22T13:16:01.849Z,1009.22
2019-05-22T13:17:54.577Z,1009.26
2019-05-22T13:18:54.528Z,1009.22
2019-05-22T13:20:47.389Z,1009.31
2019-05-22T13:21:47.218Z,1009.31
2019-05-22T13:23:40.027Z,1009.29
2019-05-22T13:24:40.012Z,1009.25
2019-05-22T13:26:32.812Z,1009.33
2019-05-22T13:27:32.694Z,1009.29
2019-05-22T13:29:25.552Z,1009.32
2019-05-22T13:30:28.432Z,1009.31
2019-05-22T13:32:18.278Z,1009.34
2019-05-22T13:33:18.159Z,1009.36
2019-05-22T13:35:11.035Z,1009.37
2019-05-22T13:36:10.934Z,1009.34
2019-05-22T13:38:03.672Z,1009.44
2019-05-22T13:39:03.618Z,1009.44
2019-05-22T13:40:56.420Z,1009.50
2019-05-22T13:41:56.319Z,1009.47
2019-05-22T13:43:49.107Z,1009.47
2019-05-22T13:44:49.022Z,1009.52
2019-05-22T13:46:41.827Z,1009.54
2019-05-22T13:47:41.747Z,1009.53
2019-05-22T13:49:34.519Z,1009.62
2019-05-22T13:50:34.471Z,1009.58
2019-05-22T13:52:27.274Z,1009.56
2019-05-22T13:53:27.175Z,1009.58
2019-05-22T13:55:20.012Z,1009.59
2019-05-22T13:56:19.916Z,1009.62
2019-05-22T13:58:12.742Z,1009.67
2019-05-22T13:59:12.649Z,1009.69
2019-05-22T14:01:05.406Z,1009.63
2019-05-22T14:02:05.347Z,1009.65
2019-05-22T14:03:58.142Z,1009.66
2019-05-22T14:04:58.069Z,1009.71
2019-05-22T14:06:50.875Z,1009.72
2019-05-22T14:07:50.799Z,1009.69
2019-05-22T14:09:43.577Z,1009.78
2019-05-22T14:10:43.495Z,1009.71
2019-05-22T14:12:36.307Z,1009.70
2019-05-22T14:13:36.218Z,1009.77
2019-05-22T14:15:47.991Z,1009.71
2019-05-22T14:16:28.936Z,1009.68
2019-05-22T14:18:21.696Z,1009.75
2019-05-22T14:19:21.620Z,1009.78
2019-05-22T14:21:14.410Z,1009.73
2019-05-22T14:22:14.421Z,1009.80
2019-05-22T14:24:07.187Z,1009.78
2019-05-22T14:25:07.090Z,1009.84
2019-05-22T14:26:59.876Z,1009.75
2019-05-22T14:27:59.872Z,1009.81
2019-05-22T14:29:52.613Z,1009.79
2019-05-22T14:30:52.487Z,1009.80
2019-05-22T14:32:45.273Z,1009.80
2019-05-22T14:33:45.207Z,1009.82
2019-05-22T14:35:48.506Z,1009.81
2019-05-22T14:36:37.929Z,1009.81
2019-05-22T14:38:30.770Z,1009.84
2019-05-22T14:39:30.658Z,1009.81
2019-05-22T14:41:23.515Z,1009.86
2019-05-22T14:42:23.376Z,1009.80
2019-05-22T14:44:16.299Z,1009.87
2019-05-22T14:45:16.147Z,1009.82
2019-05-22T14:47:14.907Z,1009.89
2019-05-22T14:48:08.861Z,1009.88
2019-05-22T14:50:01.637Z,1009.92
2019-05-22T14:51:01.568Z,1009.89
2019-05-22T14:52:54.330Z,1009.93
2019-05-22T14:53:54.255Z,1009.96
2019-05-22T14:55:47.042Z,1009.93
2019-05-22T14:56:47.045Z,1009.91
2019-05-22T14:58:39.863Z,1009.93
2019-05-22T14:59:39.705Z,1009.98
2019-05-22T15:01:32.500Z,1009.96
2019-05-22T15:02:32.405Z,1009.96
2019-05-22T15:04:25.413Z,1009.98
2019-05-22T15:05:25.116Z,1010.00
2019-05-22T15:07:17.926Z,1009.97
2019-05-22T15:08:17.910Z,1009.98
2019-05-22T15:10:10.640Z,1010.01
2019-05-22T15:11:10.553Z,1009.95
2019-05-22T15:13:03.348Z,1009.98
2019-05-22T15:14:03.271Z,1010.03
2019-05-22T15:15:56.100Z,1010.05
2019-05-22T15:16:56.047Z,1010.06
2019-05-22T15:18:48.927Z,1010.07
2019-05-22T15:19:48.834Z,1010.08
2019-05-22T15:21:41.619Z,1010.09
2019-05-22T15:22:41.554Z,1010.12
2019-05-22T15:24:34.361Z,1010.09
2019-05-22T15:25:34.287Z,1010.11
2019-05-22T15:27:27.047Z,1010.09
2019-05-22T15:28:27.233Z,1010.11
2019-05-22T15:30:19.829Z,1010.14
2019-05-22T15:31:19.745Z,1010.17
2019-05-22T15:33:12.534Z,1010.14
2019-05-22T15:34:12.460Z,1010.11
2019-05-22T15:36:06.720Z,1010.13
2019-05-22T15:37:05.207Z,1010.16
2019-05-22T15:38:57.996Z,1010.13
2019-05-22T15:39:57.918Z,1010.12
2019-05-22T15:41:50.684Z,1010.08
2019-05-22T15:42:50.612Z,1010.08
2019-05-22T15:44:43.432Z,1010.13
2019-05-22T15:45:43.336Z,1010.09
2019-05-22T15:47:52.489Z,1010.11
2019-05-22T15:48:36.042Z,1010.10
2019-05-22T15:50:28.846Z,1010.16
2019-05-22T15:51:28.771Z,1010.19
2019-05-22T15:53:21.556Z,1010.22
2019-05-22T15:54:21.492Z,1010.17
2019-05-22T15:56:14.311Z,1010.26
2019-05-22T15:57:14.220Z,1010.23
2019-05-22T15:59:07.077Z,1010.29
2019-05-22T16:00:06.998Z,1010.26
2019-05-22T16:01:59.781Z,1010.29
2019-05-22T16:02:59.702Z,1010.31
2019-05-22T16:04:52.559Z,1010.32
2019-05-22T16:05:52.466Z,1010.33
2019-05-22T16:07:45.209Z,1010.35
2019-05-22T16:08:45.210Z,1010.35
2019-05-22T16:10:37.953Z,1010.33
2019-05-22T16:11:37.884Z,1010.33
2019-05-22T16:13:30.677Z,1010.36
2019-05-22T16:14:30.578Z,1010.30
2019-05-22T16:16:23.409Z,1010.35
2019-05-22T16:17:23.285Z,1010.31
2019-05-22T16:19:16.119Z,1010.37
2019-05-22T16:20:16.006Z,1010.33
2019-05-22T16:22:08.787Z,1010.35
2019-05-22T16:23:08.725Z,1010.32
2019-05-22T16:25:01.516Z,1010.34
2019-05-22T16:26:01.439Z,1010.38
2019-05-22T16:27:54.217Z,1010.38
2019-05-22T16:28:54.126Z,1010.38
2019-05-22T16:30:46.914Z,1010.43
2019-05-22T16:31:46.839Z,1010.41
2019-05-22T16:33:39.616Z,1010.43
2019-05-22T16:34:39.546Z,1010.40
2019-05-22T16:36:32.338Z,1010.42
2019-05-22T16:37:32.253Z,1010.45
2019-05-22T16:39:25.029Z,1010.45
2019-05-22T16:40:24.968Z,1010.43
2019-05-22T16:42:17.817Z,1010.50
2019-05-22T16:43:17.692Z,1010.48
2019-05-22T16:45:10.503Z,1010.49
2019-05-22T16:46:10.414Z,1010.47
2019-05-22T16:48:03.247Z,1010.58
2019-05-22T16:49:03.290Z,1010.48
2019-05-22T16:50:56.178Z,1010.51
2019-05-22T16:51:55.924Z,1010.51
2019-05-22T16:53:48.688Z,1010.56
2019-05-22T16:54:48.660Z,1010.57
2019-05-22T16:56:41.440Z,1010.51
2019-05-22T16:57:41.348Z,1010.59
2019-05-22T16:59:36.936Z,1010.59
2019-05-22T17:00:34.061Z,1010.63
2019-05-22T17:02:26.885Z,1010.64
2019-05-22T17:03:26.807Z,1010.65
2019-05-22T17:05:19.619Z,1010.73
2019-05-22T17:06:19.557Z,1010.66
2019-05-22T17:08:12.355Z,1010.77
2019-05-22T17:09:12.246Z,1010.67
2019-05-22T17:11:05.050Z,1010.71
2019-05-22T17:12:05.120Z,1010.64
2019-05-22T17:13:57.740Z,1010.74
2019-05-22T17:14:57.672Z,1010.71
2019-05-22T17:16:50.494Z,1010.74
2019-05-22T17:17:50.382Z,1010.71
2019-05-22T17:19:43.234Z,1010.73
2019-05-22T17:20:43.082Z,1010.70
2019-05-22T17:22:35.890Z,1010.76
2019-05-22T17:23:35.802Z,1010.74
2019-05-22T17:25:28.653Z,1010.78